createdAt,value
2022-12-15T00:00:19.951Z,15.75
2022-12-15T00:03:05.475Z,12.00
2022-12-15T00:05:51.319Z,12.80
2022-12-15T00:08:36.735Z,14.00
2022-12-15T00:11:23.684Z,17.02
2022-12-15T00:14:09.091Z,14.07
2022-12-15T00:16:54.522Z,12.88
2022-12-15T00:19:40.079Z,14.35
2022-12-15T00:22:25.342Z,13.82
2022-12-15T00:25:10.744Z,14.57
2022-12-15T00:27:56.037Z,13.80
2022-12-15T00:30:41.481Z,14.65
2022-12-15T00:33:30.995Z,15.45
2022-12-15T00:36:20.158Z,15.82
2022-12-15T00:38:47.471Z,15.13
2022-12-15T00:41:18.557Z,15.88
2022-12-15T00:43:46.267Z,16.63
2022-12-15T00:46:33.278Z,17.38
2022-12-15T00:49:01.515Z,16.20
2022-12-15T00:51:47.567Z,15.05
2022-12-15T00:54:33.216Z,15.25
2022-12-15T00:57:18.623Z,14.68
2022-12-15T01:00:04.057Z,15.48
2022-12-15T01:02:49.850Z,14.65
2022-12-15T01:05:35.418Z,17.30
2022-12-15T01:08:20.854Z,16.75
2022-12-15T01:11:06.198Z,16.98
2022-12-15T01:13:51.670Z,16.00
2022-12-15T01:16:37.114Z,16.42
2022-12-15T01:19:22.742Z,16.23
2022-12-15T01:21:49.701Z,13.00
2022-12-15T01:24:16.778Z,14.00
2022-12-15T01:26:43.635Z,14.90
2022-12-15T01:29:10.479Z,15.02
2022-12-15T01:31:37.339Z,13.95
2022-12-15T01:34:04.203Z,16.17
2022-12-15T01:36:31.191Z,16.35
2022-12-15T01:38:58.129Z,16.10
2022-12-15T01:41:25.216Z,16.02
2022-12-15T01:43:52.159Z,14.95
2022-12-15T01:46:24.463Z,14.95
2022-12-15T01:49:23.137Z,14.68
2022-12-15T01:51:59.655Z,13.95
2022-12-15T01:54:51.583Z,13.30
2022-12-15T01:57:30.830Z,16.83
2022-12-15T02:00:06.471Z,16.30
2022-12-15T02:02:40.352Z,15.25
2022-12-15T02:05:10.104Z,14.30
2022-12-15T02:07:36.974Z,15.10
2022-12-15T02:10:10.107Z,16.60
2022-12-15T02:13:17.567Z,17.58
2022-12-15T02:16:32.106Z,14.57
2022-12-15T02:19:45.340Z,17.67
2022-12-15T02:22:56.372Z,16.30
2022-12-15T02:26:08.319Z,15.68
2022-12-15T02:29:38.340Z,14.80
2022-12-15T02:32:16.724Z,14.25
2022-12-15T02:35:06.296Z,16.25
2022-12-15T02:37:39.123Z,15.63
2022-12-15T02:40:10.712Z,16.33
2022-12-15T02:42:52.045Z,15.82
2022-12-15T02:45:36.114Z,16.02
2022-12-15T02:48:21.444Z,16.40
2022-12-15T02:51:14.468Z,17.50
2022-12-15T02:54:30.354Z,14.90
2022-12-15T02:57:11.107Z,16.40
2022-12-15T02:59:55.362Z,15.32
2022-12-15T03:02:29.783Z,16.75
2022-12-15T03:04:58.817Z,18.17
2022-12-15T03:07:28.010Z,16.55
2022-12-15T03:10:01.005Z,16.95
2022-12-15T03:12:27.871Z,16.75
2022-12-15T03:14:54.770Z,15.23
2022-12-15T03:17:21.625Z,18.08
2022-12-15T03:19:49.844Z,16.88
2022-12-15T03:22:17.015Z,17.17
2022-12-15T03:24:43.866Z,16.10
2022-12-15T03:27:10.797Z,17.60
2022-12-15T03:29:37.945Z,16.50
2022-12-15T03:32:05.645Z,17.80
2022-12-15T03:34:32.598Z,17.52
2022-12-15T03:36:59.459Z,16.60
2022-12-15T03:39:26.410Z,14.68
2022-12-15T03:41:53.279Z,16.33
2022-12-15T03:44:20.906Z,16.25
2022-12-15T03:46:47.814Z,14.82
2022-12-15T03:49:14.673Z,16.17
2022-12-15T03:51:41.505Z,16.52
2022-12-15T03:54:08.773Z,14.85
2022-12-15T03:56:35.674Z,16.02
2022-12-15T03:59:03.117Z,16.40
2022-12-15T04:01:36.860Z,14.75
2022-12-15T04:04:05.051Z,15.18
2022-12-15T04:06:32.226Z,16.10
2022-12-15T04:08:59.200Z,15.43
2022-12-15T04:11:26.128Z,16.20
2022-12-15T04:13:53.073Z,15.73
2022-12-15T04:16:20.669Z,14.50
2022-12-15T04:19:11.331Z,15.43
2022-12-15T04:21:38.195Z,15.02
2022-12-15T04:24:24.287Z,14.10
2022-12-15T04:27:09.654Z,16.10
2022-12-15T04:29:55.111Z,15.75
2022-12-15T04:32:40.394Z,17.55
2022-12-15T04:35:26.934Z,15.73
2022-12-15T04:38:12.845Z,17.33
2022-12-15T04:40:58.306Z,14.30
2022-12-15T04:43:44.214Z,17.60
2022-12-15T04:46:29.521Z,15.60
2022-12-15T04:49:15.151Z,15.27
2022-12-15T04:52:00.513Z,15.88
2022-12-15T04:54:45.931Z,17.17
2022-12-15T04:57:31.591Z,17.23
2022-12-15T05:00:16.959Z,16.83
2022-12-15T05:03:02.467Z,16.95
2022-12-15T05:05:47.737Z,16.02
2022-12-15T05:08:33.221Z,18.05
2022-12-15T05:11:19.287Z,15.48
2022-12-15T05:14:04.575Z,18.50
2022-12-15T05:16:50.059Z,15.95
2022-12-15T05:19:35.488Z,18.42
2022-12-15T05:22:20.939Z,16.70
2022-12-15T05:25:06.451Z,15.65
2022-12-15T05:27:52.416Z,15.98
2022-12-15T05:30:37.996Z,17.10
2022-12-15T05:33:06.008Z,17.58
2022-12-15T05:35:32.846Z,18.40
2022-12-15T05:37:59.718Z,17.27
2022-12-15T05:40:26.590Z,15.20
2022-12-15T05:42:53.432Z,19.48
2022-12-15T05:45:21.346Z,14.70
2022-12-15T05:47:55.043Z,17.05
2022-12-15T05:50:23.489Z,17.52
2022-12-15T05:52:50.788Z,15.68
2022-12-15T05:55:19.079Z,16.75
2022-12-15T05:57:53.472Z,18.10
2022-12-15T06:00:21.807Z,16.75
2022-12-15T06:02:50.037Z,16.65
2022-12-15T06:05:17.868Z,18.58
2022-12-15T06:07:44.812Z,17.30
2022-12-15T06:10:13.101Z,14.05
2022-12-15T06:12:39.960Z,21.00
2022-12-15T06:15:07.612Z,19.83
2022-12-15T06:17:34.478Z,20.95
2022-12-15T06:20:01.670Z,19.70
2022-12-15T06:22:29.643Z,18.65
2022-12-15T06:24:56.642Z,17.77
2022-12-15T06:27:24.008Z,18.27
2022-12-15T06:29:51.708Z,18.58
2022-12-15T06:32:21.421Z,21.83
2022-12-15T06:34:49.518Z,19.88
2022-12-15T06:37:16.422Z,23.35
2022-12-15T06:39:43.389Z,21.38
2022-12-15T06:42:10.466Z,18.77
2022-12-15T06:44:37.399Z,18.23
2022-12-15T06:47:04.493Z,19.02
2022-12-15T06:49:31.896Z,18.90
2022-12-15T06:51:58.825Z,15.68
2022-12-15T06:54:25.688Z,19.50
2022-12-15T06:56:52.585Z,18.98
2022-12-15T06:59:22.906Z,16.45
2022-12-15T07:01:49.951Z,17.33
2022-12-15T07:04:17.364Z,17.40
2022-12-15T07:06:45.182Z,17.85
2022-12-15T07:09:18.270Z,20.10
2022-12-15T07:11:46.322Z,18.40
2022-12-15T07:14:13.173Z,17.45
2022-12-15T07:16:40.902Z,18.65
2022-12-15T07:19:14.144Z,16.52
2022-12-15T07:21:41.422Z,19.55
2022-12-15T07:24:12.790Z,17.88
2022-12-15T07:26:40.868Z,19.95
2022-12-15T07:29:07.801Z,18.58
2022-12-15T07:31:34.793Z,20.02
2022-12-15T07:34:01.738Z,18.52
2022-12-15T07:36:28.650Z,17.40
2022-12-15T07:39:04.728Z,18.75
2022-12-15T07:41:32.054Z,17.17
2022-12-15T07:43:59.586Z,20.17
2022-12-15T07:46:26.592Z,18.55
2022-12-15T07:48:53.523Z,17.73
2022-12-15T07:51:21.874Z,17.55
2022-12-15T07:53:50.927Z,21.67
2022-12-15T07:56:21.449Z,19.98
2022-12-15T07:58:49.351Z,20.00
2022-12-15T08:01:16.861Z,18.85
2022-12-15T08:03:44.963Z,19.05
2022-12-15T08:06:15.126Z,18.20
2022-12-15T08:08:49.927Z,18.95
2022-12-15T08:11:24.668Z,19.65
2022-12-15T08:14:13.521Z,23.23
2022-12-15T08:16:40.109Z,22.67
2022-12-15T08:19:13.029Z,22.10
2022-12-15T08:21:42.499Z,21.85
2022-12-15T08:24:11.004Z,24.17
2022-12-15T08:26:41.853Z,22.65
2022-12-15T08:32:01.868Z,22.23
2022-12-15T08:34:28.980Z,23.17
2022-12-15T08:36:55.904Z,23.48
2022-12-15T08:39:23.155Z,21.27
2022-12-15T08:41:50.746Z,23.42
2022-12-15T08:44:17.697Z,21.48
2022-12-15T08:46:44.701Z,22.52
2022-12-15T08:49:15.236Z,21.38
2022-12-15T08:51:44.924Z,21.80
2022-12-15T08:54:11.919Z,24.08
2022-12-15T08:56:38.894Z,22.48
2022-12-15T08:59:05.770Z,20.45
2022-12-15T09:03:43.838Z,19.85
2022-12-15T09:06:20.610Z,19.98
2022-12-15T09:08:48.573Z,21.48
2022-12-15T09:11:18.020Z,23.30
2022-12-15T09:13:44.925Z,21.30
2022-12-15T09:16:16.676Z,19.70
2022-12-15T09:18:48.277Z,22.00
2022-12-15T09:21:16.385Z,19.40
2022-12-15T09:23:47.531Z,20.90
2022-12-15T09:26:15.880Z,20.50
2022-12-15T09:28:44.170Z,23.20
2022-12-15T09:31:22.869Z,21.27
2022-12-15T09:33:53.728Z,20.83
2022-12-15T09:36:22.249Z,19.50
2022-12-15T09:38:49.779Z,20.95
2022-12-15T09:41:31.975Z,18.77
2022-12-15T09:44:21.067Z,19.17
2022-12-15T09:47:34.507Z,19.00
2022-12-15T09:50:10.447Z,17.05
2022-12-15T09:52:49.847Z,19.98
2022-12-15T09:55:30.251Z,18.25
2022-12-15T09:58:23.588Z,18.10
2022-12-15T10:01:07.925Z,17.50
2022-12-15T10:04:14.048Z,17.00
2022-12-15T10:07:11.971Z,15.27
2022-12-15T10:09:39.005Z,15.10
2022-12-15T10:12:32.703Z,16.15
2022-12-15T10:15:29.443Z,16.70
2022-12-15T10:18:22.579Z,15.70
2022-12-15T10:20:54.539Z,17.70
2022-12-15T10:23:21.690Z,17.13
2022-12-15T10:26:12.843Z,16.53
2022-12-15T10:29:18.329Z,16.85
2022-12-15T10:32:17.745Z,14.55
2022-12-15T10:34:45.637Z,16.65
2022-12-15T10:37:20.169Z,14.18
2022-12-15T10:39:51.101Z,13.65
2022-12-15T10:42:25.121Z,13.30
2022-12-15T10:44:58.660Z,12.63
2022-12-15T10:47:31.955Z,13.52
2022-12-15T10:50:25.117Z,14.98
2022-12-15T10:52:52.428Z,15.13
2022-12-15T10:55:49.855Z,16.65
2022-12-15T10:58:23.205Z,15.40
2022-12-15T11:01:18.050Z,16.00
2022-12-15T11:03:46.246Z,14.63
2022-12-15T11:06:31.448Z,14.38
2022-12-15T11:09:28.055Z,14.17
2022-12-15T11:12:13.799Z,16.40
2022-12-15T11:14:51.524Z,16.10
2022-12-15T11:17:23.932Z,14.60
2022-12-15T11:20:04.630Z,14.90
2022-12-15T11:22:55.053Z,14.80
2022-12-15T11:25:51.544Z,12.02
2022-12-15T11:28:50.561Z,14.20
2022-12-15T11:31:36.712Z,15.30
2022-12-15T11:34:13.060Z,13.20
2022-12-15T11:37:23.925Z,14.07
2022-12-15T11:40:39.694Z,13.45
2022-12-15T11:43:44.894Z,13.68
2022-12-15T11:46:24.034Z,13.48
2022-12-15T11:49:40.957Z,13.68
2022-12-15T11:53:00.519Z,13.55
2022-12-15T11:56:23.678Z,12.70
2022-12-15T11:59:39.981Z,12.90
2022-12-15T12:02:41.980Z,13.93
2022-12-15T12:06:23.615Z,16.10
2022-12-15T12:09:31.763Z,18.35
2022-12-15T12:12:50.475Z,14.40
2022-12-15T12:15:54.427Z,11.13
2022-12-15T12:18:36.517Z,13.33
2022-12-15T12:21:25.346Z,12.60
2022-12-15T12:24:11.703Z,10.77
2022-12-15T12:26:50.245Z,10.97
2022-12-15T12:29:37.691Z,9.80
2022-12-15T12:32:48.196Z,9.33
2022-12-15T12:35:44.542Z,10.90
2022-12-15T12:38:13.798Z,11.40
2022-12-15T12:40:40.557Z,12.00
2022-12-15T12:43:17.698Z,11.00
2022-12-15T12:46:19.177Z,10.95
2022-12-15T12:49:07.982Z,9.45
2022-12-15T12:51:48.863Z,8.50
2022-12-15T12:54:34.473Z,9.25
2022-12-15T12:57:10.968Z,10.20
2022-12-15T12:59:49.169Z,9.65
2022-12-15T13:02:24.485Z,10.10
2022-12-15T13:05:00.331Z,11.38
2022-12-15T13:07:43.047Z,11.52
2022-12-15T13:10:21.086Z,10.00
2022-12-15T13:12:59.131Z,10.07
2022-12-15T13:15:35.695Z,8.50
2022-12-15T13:18:26.867Z,9.15
2022-12-15T13:20:58.393Z,8.63
2022-12-15T13:23:25.754Z,9.00
2022-12-15T13:25:55.845Z,9.25
2022-12-15T13:28:44.337Z,9.02
2022-12-15T13:31:19.200Z,9.75
2022-12-15T13:33:52.533Z,9.73
2022-12-15T13:36:38.263Z,9.02
2022-12-15T13:39:17.128Z,8.77
2022-12-15T13:42:32.799Z,9.80
2022-12-15T13:45:11.685Z,9.27
2022-12-15T13:47:39.158Z,8.77
2022-12-15T13:50:43.989Z,8.60
2022-12-15T13:53:26.637Z,8.40
2022-12-15T13:56:14.493Z,9.68
2022-12-15T13:59:00.586Z,7.45
2022-12-15T14:01:32.943Z,9.00
2022-12-15T14:04:22.670Z,9.13
2022-12-15T14:07:00.764Z,8.20
2022-12-15T14:09:42.168Z,9.05
2022-12-15T14:12:14.127Z,7.70
2022-12-15T14:14:49.478Z,7.32
2022-12-15T14:17:19.642Z,5.90
2022-12-15T14:19:50.957Z,6.82
2022-12-15T14:22:30.582Z,7.90
2022-12-15T14:25:29.602Z,7.85
2022-12-15T14:27:57.306Z,8.90
2022-12-15T14:30:32.977Z,7.22
2022-12-15T14:33:07.611Z,6.85
2022-12-15T14:35:49.442Z,8.77
2022-12-15T14:38:58.382Z,8.15
2022-12-15T14:41:37.162Z,8.15
2022-12-15T14:44:39.163Z,8.25
2022-12-15T14:47:22.683Z,8.35
2022-12-15T14:49:51.289Z,8.20
2022-12-15T14:52:38.701Z,13.43
2022-12-15T14:55:37.894Z,8.65
2022-12-15T14:58:34.567Z,8.50
2022-12-15T15:01:04.118Z,9.18
2022-12-15T15:03:40.654Z,8.85
2022-12-15T15:06:18.894Z,20.38
2022-12-15T15:08:52.947Z,9.38
2022-12-15T15:11:29.451Z,8.75
2022-12-15T15:14:04.790Z,9.32
2022-12-15T15:16:31.937Z,9.60
2022-12-15T15:19:04.397Z,8.20
2022-12-15T15:21:37.116Z,9.45
2022-12-15T15:24:30.234Z,6.97
2022-12-15T15:27:36.330Z,8.23
2022-12-15T15:30:23.783Z,12.95
2022-12-15T15:33:01.855Z,10.70
2022-12-15T15:35:34.354Z,10.40
2022-12-15T15:38:33.483Z,10.15
2022-12-15T15:41:16.850Z,9.32
2022-12-15T15:43:44.343Z,8.15
2022-12-15T15:46:16.273Z,7.07
2022-12-15T15:48:53.782Z,6.85
2022-12-15T15:51:23.605Z,8.50
2022-12-15T15:53:50.765Z,7.45
2022-12-15T15:56:18.627Z,9.95
2022-12-15T15:58:46.476Z,8.00
2022-12-15T16:01:13.803Z,8.25
2022-12-15T16:03:41.974Z,7.00
2022-12-15T16:06:21.769Z,7.35
2022-12-15T16:08:54.588Z,7.85
2022-12-15T16:11:30.832Z,8.38
2022-12-15T16:13:57.751Z,9.68
2022-12-15T16:16:32.816Z,8.00
2022-12-15T16:18:59.855Z,13.40
2022-12-15T16:21:28.139Z,9.90
2022-12-15T16:23:57.797Z,8.55
2022-12-15T16:26:33.280Z,7.13
2022-12-15T16:29:00.313Z,6.55
2022-12-15T16:31:41.258Z,7.13
2022-12-15T16:34:08.998Z,8.00
2022-12-15T16:36:36.432Z,7.97
2022-12-15T16:39:04.272Z,7.07
2022-12-15T16:41:31.392Z,8.82
2022-12-15T16:43:58.569Z,7.00
2022-12-15T16:46:25.852Z,7.57
2022-12-15T16:48:53.430Z,7.60
2022-12-15T16:51:40.041Z,7.18
2022-12-15T16:54:15.545Z,7.88
2022-12-15T16:56:42.707Z,9.10
2022-12-15T16:59:36.265Z,7.10
2022-12-15T17:02:26.954Z,8.20
2022-12-15T17:04:55.202Z,5.90
2022-12-15T17:07:26.471Z,7.13
2022-12-15T17:09:53.566Z,6.78
2022-12-15T17:12:20.486Z,6.95
2022-12-15T17:14:47.345Z,7.80
2022-12-15T17:17:19.768Z,6.93
2022-12-15T17:22:34.394Z,7.85
2022-12-15T17:25:01.431Z,8.05
2022-12-15T17:27:30.084Z,6.80
2022-12-15T17:30:01.066Z,7.47
2022-12-15T17:32:27.942Z,27.13
2022-12-15T17:34:54.825Z,9.73
2022-12-15T17:37:21.810Z,14.57
2022-12-15T17:39:51.254Z,8.15
2022-12-15T17:42:21.092Z,14.73
2022-12-15T17:44:49.201Z,8.98
2022-12-15T17:47:19.011Z,13.27
2022-12-15T17:49:47.164Z,7.72
2022-12-15T17:52:28.490Z,9.48
2022-12-15T17:54:56.392Z,8.77
2022-12-15T17:57:23.479Z,6.43
2022-12-15T17:59:50.362Z,8.50
2022-12-15T18:02:17.424Z,7.28
2022-12-15T18:04:44.891Z,7.68
2022-12-15T18:07:23.888Z,7.03
2022-12-15T18:09:52.719Z,6.55
2022-12-15T18:12:25.599Z,8.35
2022-12-15T18:14:55.273Z,7.22
2022-12-15T18:17:23.735Z,6.63
2022-12-15T18:19:50.757Z,6.60
2022-12-15T18:22:24.392Z,12.52
2022-12-15T18:24:53.875Z,8.10
2022-12-15T18:27:28.802Z,8.38
2022-12-15T18:29:57.083Z,6.80
2022-12-15T18:32:29.709Z,6.43
2022-12-15T18:34:56.665Z,7.55
2022-12-15T18:37:24.954Z,9.57
2022-12-15T18:39:53.714Z,9.15
2022-12-15T18:42:22.956Z,8.43
2022-12-15T18:44:53.103Z,7.18
2022-12-15T18:47:23.322Z,7.65
2022-12-15T18:49:50.468Z,9.10
2022-12-15T18:52:23.114Z,19.08
2022-12-15T18:54:53.791Z,9.48
2022-12-15T18:57:39.256Z,8.57
2022-12-15T19:00:18.695Z,8.15
2022-12-15T19:02:46.093Z,7.43
2022-12-15T19:05:28.567Z,8.50
2022-12-15T19:08:27.391Z,8.15
2022-12-15T19:11:07.600Z,8.40
2022-12-15T19:13:38.700Z,6.97
2022-12-15T19:16:17.206Z,7.15
2022-12-15T19:19:03.420Z,8.93
2022-12-15T19:21:43.080Z,8.18
2022-12-15T19:24:44.661Z,8.13
2022-12-15T19:27:20.685Z,6.50
2022-12-15T19:29:49.861Z,6.93
2022-12-15T19:32:20.043Z,6.47
2022-12-15T19:34:47.096Z,7.07
2022-12-15T19:37:30.866Z,6.63
2022-12-15T19:40:01.466Z,7.90
2022-12-15T19:42:35.292Z,7.95
2022-12-15T19:45:16.976Z,7.68
2022-12-15T19:47:44.340Z,8.23
2022-12-15T19:50:19.623Z,8.00
2022-12-15T19:52:52.955Z,7.68
2022-12-15T19:55:32.527Z,7.93
2022-12-15T19:58:00.876Z,8.63
2022-12-15T20:00:27.904Z,7.32
2022-12-15T20:02:57.266Z,7.43
2022-12-15T20:05:25.694Z,7.40
2022-12-15T20:07:55.019Z,8.93
2022-12-15T20:10:31.841Z,8.40
2022-12-15T20:13:00.974Z,9.25
2022-12-15T20:15:28.361Z,8.38
2022-12-15T20:17:58.189Z,7.93
2022-12-15T20:20:29.000Z,7.80
2022-12-15T20:23:05.280Z,9.02
2022-12-15T20:25:38.053Z,8.35
2022-12-15T20:28:35.540Z,8.88
2022-12-15T20:31:02.902Z,7.72
2022-12-15T20:33:30.072Z,7.78
2022-12-15T20:35:57.202Z,8.63
2022-12-15T20:38:32.595Z,9.40
2022-12-15T20:41:02.756Z,8.65
2022-12-15T20:43:33.034Z,9.48
2022-12-15T20:46:16.111Z,8.80
2022-12-15T20:48:44.873Z,8.75
2022-12-15T20:51:33.634Z,9.45
2022-12-15T20:54:03.490Z,9.77
2022-12-15T20:56:30.618Z,10.38
2022-12-15T20:58:59.063Z,10.10
2022-12-15T21:01:32.780Z,10.52
2022-12-15T21:04:17.208Z,10.13
2022-12-15T21:06:44.468Z,9.00
2022-12-15T21:09:14.702Z,11.77
2022-12-15T21:11:42.366Z,10.05
2022-12-15T21:14:20.261Z,10.80
2022-12-15T21:16:47.385Z,9.80
2022-12-15T21:19:23.116Z,10.60
2022-12-15T21:21:54.871Z,10.95
2022-12-15T21:24:27.959Z,10.70
2022-12-15T21:26:55.811Z,11.35
2022-12-15T21:29:27.781Z,11.18
2022-12-15T21:31:54.873Z,12.00
2022-12-15T21:34:21.824Z,13.73
2022-12-15T21:36:55.229Z,14.75
2022-12-15T21:39:33.876Z,12.45
2022-12-15T21:42:21.699Z,11.63
2022-12-15T21:44:48.899Z,11.85
2022-12-15T21:47:48.150Z,13.13
2022-12-15T21:50:18.614Z,12.82
2022-12-15T21:52:47.482Z,12.63
2022-12-15T21:55:22.911Z,13.60
2022-12-15T21:57:49.963Z,13.85
2022-12-15T22:00:21.272Z,20.35
2022-12-15T22:02:51.800Z,12.38
2022-12-15T22:05:32.404Z,17.05
2022-12-15T22:08:22.018Z,13.85
2022-12-15T22:10:52.022Z,14.25
2022-12-15T22:13:23.339Z,14.50
2022-12-15T22:15:51.044Z,15.20
2022-12-15T22:18:22.481Z,14.30
2022-12-15T22:20:50.664Z,14.82
2022-12-15T22:23:20.723Z,18.83
2022-12-15T22:25:55.549Z,14.65
2022-12-15T22:28:27.680Z,14.05
2022-12-15T22:30:56.551Z,13.63
2022-12-15T22:33:26.330Z,18.63
2022-12-15T22:35:56.103Z,17.65
2022-12-15T22:38:24.574Z,17.70
2022-12-15T22:40:56.848Z,16.02
2022-12-15T22:43:38.103Z,16.73
2022-12-15T22:46:12.396Z,32.00
2022-12-15T22:48:45.384Z,17.83
2022-12-15T22:51:16.181Z,15.65
2022-12-15T22:53:43.125Z,29.02
2022-12-15T22:56:28.184Z,15.55
2022-12-15T22:59:12.509Z,15.00
2022-12-15T23:01:39.580Z,14.48
2022-12-15T23:04:06.612Z,14.98
2022-12-15T23:06:33.496Z,16.63
2022-12-15T23:09:00.377Z,15.95
2022-12-15T23:11:39.790Z,16.15
2022-12-15T23:14:15.348Z,18.50
2022-12-15T23:16:45.608Z,15.32
2022-12-15T23:19:23.852Z,16.05
2022-12-15T23:21:51.905Z,15.65
2022-12-15T23:24:19.029Z,16.83
2022-12-15T23:26:45.902Z,17.75
2022-12-15T23:29:12.913Z,17.40
2022-12-15T23:31:39.923Z,16.98
2022-12-15T23:34:07.127Z,17.40
2022-12-15T23:36:34.033Z,17.38
2022-12-15T23:39:00.921Z,17.55
2022-12-15T23:41:29.201Z,18.17
2022-12-15T23:43:56.229Z,16.50
2022-12-15T23:46:23.148Z,17.17
2022-12-15T23:48:50.165Z,16.05
2022-12-15T23:51:20.701Z,19.83
2022-12-15T23:53:48.319Z,17.38
2022-12-15T23:56:23.129Z,17.52
2022-12-15T23:58:58.591Z,19.00
